createdAt,value
2018-04-27T00:00:10.850Z,6.57
2018-04-27T00:06:01.754Z,6.47
2018-04-27T00:11:52.649Z,6.44
2018-04-27T00:17:43.577Z,6.45
2018-04-27T00:23:34.420Z,6.35
2018-04-27T00:29:25.315Z,6.11
2018-04-27T00:35:16.192Z,7.09
2018-04-27T00:41:07.072Z,6.47
2018-04-27T00:46:57.986Z,7.27
2018-04-27T00:52:48.886Z,7.61
2018-04-27T00:58:39.811Z,7.48
2018-04-27T01:04:30.666Z,6.55
2018-04-27T01:10:21.576Z,7.56
2018-04-27T01:16:12.422Z,7.08
2018-04-27T01:22:03.345Z,6.94
2018-04-27T01:27:54.227Z,6.12
2018-04-27T01:33:45.117Z,7.49
2018-04-27T01:39:35.994Z,6.78
2018-04-27T01:45:26.891Z,6.15
2018-04-27T01:51:17.769Z,5.59
2018-04-27T01:57:08.647Z,6.17
2018-04-27T02:02:59.572Z,6.12
2018-04-27T02:08:50.408Z,6.92
2018-04-27T02:14:41.364Z,6.43
2018-04-27T02:20:32.245Z,5.69
2018-04-27T02:26:23.096Z,6.28
2018-04-27T02:32:13.950Z,7.11
2018-04-27T02:38:04.895Z,6.6
2018-04-27T02:43:55.727Z,7.01
2018-04-27T02:49:46.606Z,6.94
2018-04-27T02:55:37.492Z,8.12
2018-04-27T03:01:28.446Z,5.9
2018-04-27T03:07:19.273Z,6.08
2018-04-27T03:13:10.139Z,6.01
2018-04-27T03:19:01.071Z,5.5
2018-04-27T03:24:51.868Z,6.1
2018-04-27T03:30:42.841Z,7.09
2018-04-27T03:36:33.680Z,6.3
2018-04-27T03:42:24.539Z,5.91
2018-04-27T03:48:15.415Z,5.63
2018-04-27T03:54:06.301Z,6.37
2018-04-27T03:59:57.190Z,6.21
2018-04-27T04:05:48.097Z,5.8
2018-04-27T04:11:38.986Z,5.84
2018-04-27T04:17:29.862Z,5.54
2018-04-27T04:23:20.720Z,5.69
2018-04-27T04:29:11.605Z,5.21
2018-04-27T04:35:02.496Z,5.42
2018-04-27T04:40:53.362Z,5.95
2018-04-27T04:46:44.256Z,5.59
2018-04-27T04:52:35.162Z,5.51
2018-04-27T04:58:26.023Z,5.95
2018-04-27T05:04:16.900Z,6.12
2018-04-27T05:10:07.746Z,5.23
2018-04-27T05:15:58.630Z,6.45
2018-04-27T05:21:49.550Z,6.74
2018-04-27T05:27:40.410Z,10.26
2018-04-27T05:33:31.313Z,9.97
2018-04-27T05:39:22.151Z,11.02
2018-04-27T05:45:13.046Z,7.95
2018-04-27T05:51:03.978Z,7.58
2018-04-27T05:56:54.824Z,8.81
2018-04-27T06:02:45.696Z,8.9
2018-04-27T06:08:36.551Z,8.66
2018-04-27T06:14:27.544Z,8.32
2018-04-27T06:20:18.379Z,8.66
2018-04-27T06:26:09.252Z,8.39
2018-04-27T06:32:00.105Z,8.37
2018-04-27T06:37:51.012Z,9.27
2018-04-27T06:43:41.876Z,9.74
2018-04-27T06:49:32.773Z,9.58
2018-04-27T06:55:23.608Z,9.9
2018-04-27T07:01:14.509Z,9.1
2018-04-27T07:07:05.394Z,9.08
2018-04-27T07:12:56.252Z,9
2018-04-27T07:18:47.136Z,9.86
2018-04-27T07:30:28.911Z,10.65
2018-04-27T07:36:19.805Z,12.04
2018-04-27T07:42:10.648Z,13.19
2018-04-27T07:48:01.578Z,11.15
2018-04-27T07:53:52.476Z,12.82
2018-04-27T07:59:43.349Z,11.89
2018-04-27T08:05:34.227Z,11.95
2018-04-27T08:11:25.198Z,12.18
2018-04-27T08:17:15.984Z,13.77
2018-04-27T08:23:06.872Z,11.51
2018-04-27T08:28:57.784Z,12.49
2018-04-27T08:34:48.657Z,14.71
2018-04-27T08:40:39.549Z,16.54
2018-04-27T08:46:30.424Z,16.83
2018-04-27T08:52:21.330Z,17.75
2018-04-27T08:58:12.176Z,20.05
2018-04-27T09:04:03.109Z,18.96
2018-04-27T09:09:53.958Z,20.4
2018-04-27T09:15:44.832Z,17.98
2018-04-27T09:21:35.813Z,15.85
2018-04-27T09:27:26.646Z,14.2
2018-04-27T09:33:17.537Z,14.27
2018-04-27T09:39:08.388Z,18.98
2018-04-27T09:44:59.468Z,19.32
2018-04-27T09:50:50.242Z,22.25
2018-04-27T10:02:31.940Z,21.8
2018-04-27T10:08:22.878Z,20
2018-04-27T10:14:13.745Z,21.87
2018-04-27T10:20:04.686Z,28.62
2018-04-27T10:25:55.543Z,30.71
2018-04-27T10:31:46.479Z,23.85
2018-04-27T10:37:37.357Z,13.18
2018-04-27T10:43:28.301Z,13.51
2018-04-27T10:49:19.152Z,9.26
2018-04-27T10:55:10.097Z,7
2018-04-27T11:01:01.023Z,6.25
2018-04-27T11:06:51.916Z,5.31
2018-04-27T11:12:42.840Z,5.78
2018-04-27T11:18:33.787Z,5.24
2018-04-27T11:24:24.688Z,4.51
2018-04-27T11:30:15.635Z,4.37
2018-04-27T11:36:06.595Z,3.46
2018-04-27T11:41:57.492Z,3.32
2018-04-27T11:47:48.547Z,3.56
2018-04-27T11:59:53.123Z,3.63
2018-04-27T12:05:44.123Z,3.33
2018-04-27T12:11:35.151Z,3.51
2018-04-27T12:19:44.414Z,3.41
2018-04-27T12:25:35.360Z,3.95
2018-04-27T12:37:28.490Z,3.88
2018-04-27T12:43:19.441Z,4.2
2018-04-27T12:49:10.426Z,4.33
2018-04-27T13:00:52.342Z,6.26
2018-04-27T13:06:43.307Z,9.3
2018-04-27T13:12:34.333Z,13.4
2018-04-27T13:18:25.275Z,10.19
2018-04-27T13:24:16.233Z,6.61
2018-04-27T13:30:07.249Z,7.54
2018-04-27T13:35:58.194Z,7.74
2018-04-27T13:41:49.161Z,6.4
2018-04-27T13:47:40.135Z,6.19
2018-04-27T13:53:31.085Z,6.33
2018-04-27T13:59:22.045Z,6.11
2018-04-27T14:05:13.083Z,4.49
2018-04-27T14:11:04.003Z,4.47
2018-04-27T14:16:54.958Z,4.65
2018-04-27T14:22:45.952Z,4.24
2018-04-27T14:28:36.912Z,4.24
2018-04-27T14:34:27.864Z,4.08
2018-04-27T14:40:18.793Z,4.4
2018-04-27T14:46:09.806Z,4.1
2018-04-27T14:52:00.672Z,3.95
2018-04-27T14:57:51.661Z,4.8
2018-04-27T15:03:42.594Z,5.43
2018-04-27T15:09:33.637Z,4.87
2018-04-27T15:15:24.517Z,5.51
2018-04-27T15:21:15.490Z,5.16
2018-04-27T15:27:06.447Z,5.04
2018-04-27T15:32:57.351Z,6.42
2018-04-27T15:38:48.320Z,5.04
2018-04-27T15:44:39.233Z,4.8
2018-04-27T15:50:30.290Z,5.17
2018-04-27T15:56:21.177Z,5
2018-04-27T16:02:12.077Z,4.76
2018-04-27T16:08:03.016Z,4.78
2018-04-27T16:13:53.974Z,4.68
2018-04-27T16:19:44.920Z,6.05
2018-04-27T16:25:35.961Z,6.2
2018-04-27T16:31:26.817Z,6.13
2018-04-27T16:37:17.720Z,6.75
2018-04-27T16:43:08.663Z,5.95
2018-04-27T16:48:59.695Z,5.84
2018-04-27T16:54:50.556Z,6.12
2018-04-27T17:00:41.489Z,6.53
2018-04-27T17:06:32.522Z,6.11
2018-04-27T17:12:23.427Z,5.55
2018-04-27T17:18:14.383Z,5.48
2018-04-27T17:24:05.247Z,5.3
2018-04-27T17:29:56.185Z,5.95
2018-04-27T17:35:47.168Z,5.85
2018-04-27T17:41:38.056Z,5.95
2018-04-27T17:47:28.998Z,5.78
2018-04-27T17:53:19.955Z,5.75
2018-04-27T17:59:10.858Z,5.06
2018-04-27T18:05:01.792Z,5.29
2018-04-27T18:10:52.725Z,5.63
2018-04-27T18:16:43.709Z,5.89
2018-04-27T18:22:34.584Z,5.54
2018-04-27T18:40:47.997Z,5.16
2018-04-27T18:46:38.904Z,5.89
2018-04-27T18:52:29.848Z,5.51
2018-04-27T18:58:20.775Z,4.71
2018-04-27T19:15:53.521Z,5.78
2018-04-27T19:21:44.451Z,6.18
2018-04-27T19:39:37.542Z,5.75
2018-04-27T19:51:14.141Z,6.19
2018-04-27T19:57:05.078Z,5.41
2018-04-27T20:02:55.954Z,5.52
2018-04-27T20:08:46.880Z,5.35
2018-04-27T20:14:37.859Z,5.59
2018-04-27T20:20:28.774Z,5.17
2018-04-27T20:26:19.654Z,6.07
2018-04-27T20:32:10.503Z,5.41
2018-04-27T20:38:01.465Z,5.51
2018-04-27T20:43:52.365Z,5.53
2018-04-27T20:49:43.275Z,5.36
2018-04-27T20:55:34.204Z,6.8
2018-04-27T21:01:25.057Z,5.15
2018-04-27T21:07:16.001Z,5.29
2018-04-27T21:13:06.898Z,5.07
2018-04-27T21:18:57.833Z,5.88
2018-04-27T21:24:48.854Z,5.21
2018-04-27T21:30:39.631Z,5.43
2018-04-27T21:36:30.546Z,5.35
2018-04-27T21:42:21.446Z,6.05
2018-04-27T21:48:12.369Z,6.05
2018-04-27T21:54:03.265Z,5.14
2018-04-27T21:59:54.150Z,5.55
2018-04-27T22:05:45.119Z,5.76
2018-04-27T22:11:36.020Z,6.17
2018-04-27T22:17:26.951Z,6.1
2018-04-27T22:23:17.839Z,5.64
2018-04-27T22:29:08.745Z,5.72
2018-04-27T22:34:59.620Z,5.1
2018-04-27T22:40:50.521Z,5.98
2018-04-27T22:46:41.443Z,5.5
2018-04-27T22:52:32.376Z,5.58
2018-04-27T22:58:23.231Z,5.68
2018-04-27T23:04:14.139Z,5.43
2018-04-27T23:10:05.021Z,6.24
2018-04-27T23:15:55.927Z,5.54
2018-04-27T23:21:46.841Z,5.41
2018-04-27T23:27:37.730Z,5.85
2018-04-27T23:33:28.626Z,6.13
2018-04-27T23:39:19.509Z,6.34
2018-04-27T23:45:10.441Z,5.93
2018-04-27T23:51:01.303Z,6.53
2018-04-27T23:56:52.273Z,5.39
